createdAt,value
2023-05-17T00:01:46.019Z,2.10
2023-05-17T00:04:12.641Z,4.72
2023-05-17T00:06:39.188Z,4.63
2023-05-17T00:09:05.891Z,3.90
2023-05-17T00:11:32.488Z,3.45
2023-05-17T00:14:05.033Z,4.28
2023-05-17T00:16:31.569Z,4.05
2023-05-17T00:18:58.091Z,4.40
2023-05-17T00:21:28.870Z,3.72
2023-05-17T00:23:55.454Z,2.85
2023-05-17T00:26:22.074Z,3.33
2023-05-17T00:28:48.545Z,2.70
2023-05-17T00:31:15.022Z,2.50
2023-05-17T00:33:41.707Z,5.57
2023-05-17T00:36:08.314Z,3.80
2023-05-17T00:38:35.103Z,3.08
2023-05-17T00:41:01.632Z,5.07
2023-05-17T00:43:28.342Z,7.18
2023-05-17T00:45:54.897Z,5.45
2023-05-17T00:48:21.437Z,6.75
2023-05-17T00:50:48.810Z,4.63
2023-05-17T00:53:16.382Z,4.65
2023-05-17T00:55:46.140Z,3.63
2023-05-17T00:58:13.658Z,3.42
2023-05-17T01:00:40.997Z,3.75
2023-05-17T01:03:08.110Z,4.97
2023-05-17T01:05:34.805Z,4.43
2023-05-17T01:08:01.228Z,3.17
2023-05-17T01:11:12.202Z,3.15
2023-05-17T01:13:47.877Z,5.57
2023-05-17T01:16:27.935Z,4.00
2023-05-17T01:19:03.306Z,3.38
2023-05-17T01:21:54.525Z,4.97
2023-05-17T01:24:33.408Z,3.72
2023-05-17T01:27:01.077Z,3.45
2023-05-17T01:29:30.099Z,5.45
2023-05-17T01:31:57.573Z,4.05
2023-05-17T01:34:28.288Z,2.85
2023-05-17T01:36:55.020Z,3.80
2023-05-17T01:39:21.629Z,2.65
2023-05-17T01:42:07.404Z,3.42
2023-05-17T01:45:15.062Z,3.63
2023-05-17T01:48:13.203Z,3.10
2023-05-17T01:50:40.888Z,1.95
2023-05-17T01:53:39.021Z,3.10
2023-05-17T01:56:10.471Z,6.28
2023-05-17T01:58:45.228Z,6.80
2023-05-17T02:03:39.873Z,4.10
2023-05-17T02:06:06.464Z,2.45
2023-05-17T02:08:32.948Z,3.50
2023-05-17T02:10:59.623Z,3.55
2023-05-17T02:13:26.083Z,3.13
2023-05-17T02:15:52.548Z,7.28
2023-05-17T02:18:21.993Z,3.88
2023-05-17T02:20:48.647Z,3.90
2023-05-17T02:23:15.175Z,3.40
2023-05-17T02:25:41.682Z,4.60
2023-05-17T02:28:08.176Z,4.05
2023-05-17T02:30:34.721Z,5.43
2023-05-17T02:33:01.233Z,8.38
2023-05-17T02:35:28.051Z,7.22
2023-05-17T02:37:54.725Z,3.47
2023-05-17T02:40:21.239Z,3.78
2023-05-17T02:42:47.690Z,5.97
2023-05-17T02:45:14.175Z,3.63
2023-05-17T02:47:40.710Z,4.90
2023-05-17T02:50:07.714Z,2.70
2023-05-17T02:52:34.456Z,4.00
2023-05-17T02:55:00.966Z,4.72
2023-05-17T02:57:27.505Z,2.67
2023-05-17T02:59:54.058Z,5.28
2023-05-17T03:02:20.621Z,4.18
2023-05-17T03:04:47.173Z,5.00
2023-05-17T03:07:13.836Z,4.05
2023-05-17T03:09:40.343Z,3.17
2023-05-17T03:12:07.456Z,3.67
2023-05-17T03:14:33.935Z,3.65
2023-05-17T03:17:00.376Z,4.85
2023-05-17T03:19:27.154Z,5.43
2023-05-17T03:21:53.735Z,6.43
2023-05-17T03:24:20.326Z,4.32
2023-05-17T03:26:46.817Z,4.07
2023-05-17T03:29:13.277Z,3.90
2023-05-17T03:31:39.803Z,4.20
2023-05-17T03:34:06.299Z,5.57
2023-05-17T03:36:34.797Z,5.20
2023-05-17T03:39:01.372Z,4.93
2023-05-17T03:41:27.789Z,5.85
2023-05-17T03:43:54.528Z,4.40
2023-05-17T03:46:21.018Z,7.07
2023-05-17T03:48:47.502Z,5.43
2023-05-17T03:51:14.260Z,6.95
2023-05-17T03:53:43.314Z,5.13
2023-05-17T03:56:10.479Z,7.57
2023-05-17T03:58:37.196Z,5.45
2023-05-17T04:01:04.798Z,5.88
2023-05-17T04:03:32.026Z,5.15
2023-05-17T04:06:07.079Z,6.03
2023-05-17T04:08:36.320Z,6.35
2023-05-17T04:11:13.787Z,5.78
2023-05-17T04:13:40.956Z,4.57
2023-05-17T04:16:09.192Z,6.47
2023-05-17T04:18:37.359Z,5.40
2023-05-17T04:21:04.949Z,5.10
2023-05-17T04:23:34.915Z,5.80
2023-05-17T04:26:01.499Z,7.63
2023-05-17T04:28:28.106Z,8.65
2023-05-17T04:30:55.922Z,6.63
2023-05-17T04:33:22.714Z,6.03
2023-05-17T04:35:50.865Z,6.55
2023-05-17T04:38:17.498Z,6.00
2023-05-17T04:40:43.920Z,5.22
2023-05-17T04:43:10.921Z,4.80
2023-05-17T04:45:37.774Z,4.13
2023-05-17T04:48:04.834Z,6.50
2023-05-17T04:50:31.444Z,6.45
2023-05-17T04:52:58.250Z,5.93
2023-05-17T04:55:24.933Z,4.97
2023-05-17T04:57:51.468Z,4.07
2023-05-17T05:00:18.824Z,7.15
2023-05-17T05:02:45.448Z,4.63
2023-05-17T05:05:12.288Z,2.65
2023-05-17T05:07:39.954Z,4.03
2023-05-17T05:10:07.272Z,3.13
2023-05-17T05:12:33.759Z,4.40
2023-05-17T05:15:01.293Z,4.90
2023-05-17T05:17:29.245Z,4.07
2023-05-17T05:19:55.962Z,2.72
2023-05-17T05:22:22.465Z,5.07
2023-05-17T05:24:48.996Z,5.18
2023-05-17T05:27:15.505Z,5.15
2023-05-17T05:29:42.623Z,6.35
2023-05-17T05:32:09.208Z,3.83
2023-05-17T05:34:35.859Z,3.75
2023-05-17T05:37:02.432Z,5.15
2023-05-17T05:39:29.185Z,5.80
2023-05-17T05:41:55.850Z,4.60
2023-05-17T05:44:25.246Z,7.03
2023-05-17T05:46:52.400Z,5.22
2023-05-17T05:49:19.509Z,6.25
2023-05-17T05:51:45.971Z,4.35
2023-05-17T05:54:13.911Z,4.20
2023-05-17T05:56:40.520Z,7.47
2023-05-17T05:59:07.142Z,6.68
2023-05-17T06:01:34.103Z,3.10
2023-05-17T06:04:00.604Z,5.53
2023-05-17T06:06:27.281Z,4.57
2023-05-17T06:08:53.863Z,5.30
2023-05-17T06:11:21.195Z,7.72
2023-05-17T06:13:47.824Z,5.13
2023-05-17T06:16:14.322Z,9.43
2023-05-17T06:18:41.117Z,4.63
2023-05-17T06:21:07.661Z,5.55
2023-05-17T06:23:34.322Z,7.80
2023-05-17T06:26:01.079Z,4.63
2023-05-17T06:28:27.821Z,2.92
2023-05-17T06:30:54.275Z,5.97
2023-05-17T06:33:20.931Z,4.60
2023-05-17T06:35:56.110Z,4.03
2023-05-17T06:38:23.519Z,4.00
2023-05-17T06:40:54.544Z,2.95
2023-05-17T06:43:21.913Z,6.47
2023-05-17T06:45:48.432Z,4.72
2023-05-17T06:48:15.680Z,6.05
2023-05-17T06:50:42.704Z,8.30
2023-05-17T06:53:09.189Z,14.13
2023-05-17T06:55:35.716Z,4.60
2023-05-17T06:58:02.451Z,5.75
2023-05-17T07:00:29.303Z,15.05
2023-05-17T07:02:56.600Z,6.38
2023-05-17T07:07:50.831Z,4.55
2023-05-17T07:10:17.398Z,4.68
2023-05-17T07:12:43.983Z,6.40
2023-05-17T07:15:11.120Z,6.70
2023-05-17T07:17:37.771Z,4.53
2023-05-17T07:20:06.224Z,5.22
2023-05-17T07:22:32.994Z,6.68
2023-05-17T07:24:59.523Z,8.98
2023-05-17T07:27:26.301Z,6.97
2023-05-17T07:29:52.909Z,5.00
2023-05-17T07:32:19.409Z,4.40
2023-05-17T07:34:48.760Z,5.82
2023-05-17T07:37:15.498Z,7.10
2023-05-17T07:39:42.018Z,7.35
2023-05-17T07:42:08.594Z,6.55
2023-05-17T07:44:35.148Z,5.53
2023-05-17T07:47:01.932Z,5.97
2023-05-17T07:49:28.522Z,5.70
2023-05-17T07:51:57.116Z,9.43
2023-05-17T07:54:24.710Z,7.53
2023-05-17T07:56:53.178Z,4.70
2023-05-17T07:59:19.864Z,6.28
2023-05-17T08:01:46.432Z,7.25
2023-05-17T08:04:14.359Z,6.07
2023-05-17T08:06:42.500Z,4.50
2023-05-17T08:09:09.141Z,4.93
2023-05-17T08:11:35.873Z,5.00
2023-05-17T08:14:02.483Z,5.80
2023-05-17T08:16:29.314Z,4.90
2023-05-17T08:18:56.257Z,5.43
2023-05-17T08:21:22.994Z,6.90
2023-05-17T08:23:49.577Z,6.05
2023-05-17T08:26:16.193Z,5.43
2023-05-17T08:28:43.077Z,4.22
2023-05-17T08:31:09.504Z,6.60
2023-05-17T08:33:36.612Z,5.93
2023-05-17T08:36:08.018Z,7.47
2023-05-17T08:38:35.738Z,6.13
2023-05-17T08:41:03.159Z,5.63
2023-05-17T08:43:31.445Z,6.75
2023-05-17T08:45:59.195Z,6.38
2023-05-17T08:48:27.501Z,5.47
2023-05-17T08:50:55.907Z,5.68
2023-05-17T08:53:23.528Z,4.28
2023-05-17T08:55:51.511Z,7.80
2023-05-17T08:58:21.634Z,5.60
2023-05-17T09:00:50.019Z,8.77
2023-05-17T09:03:18.824Z,7.72
2023-05-17T09:05:45.820Z,7.25
2023-05-17T09:08:14.079Z,6.03
2023-05-17T09:10:41.810Z,7.63
2023-05-17T09:13:11.699Z,5.57
2023-05-17T09:15:38.420Z,5.95
2023-05-17T09:18:05.333Z,5.22
2023-05-17T09:20:35.264Z,5.60
2023-05-17T09:23:02.631Z,8.98
2023-05-17T09:28:01.305Z,6.35
2023-05-17T09:30:29.633Z,7.35
2023-05-17T09:32:57.779Z,5.97
2023-05-17T09:35:29.837Z,6.13
2023-05-17T09:38:27.842Z,6.07
2023-05-17T09:40:54.641Z,4.50
2023-05-17T09:43:26.477Z,9.05
2023-05-17T09:45:57.984Z,7.00
2023-05-17T09:48:27.000Z,6.85
2023-05-17T09:50:54.059Z,5.95
2023-05-17T09:53:27.518Z,6.47
2023-05-17T09:55:57.150Z,5.40
2023-05-17T09:58:25.222Z,10.23
2023-05-17T10:01:03.729Z,6.20
2023-05-17T10:03:33.392Z,6.88
2023-05-17T10:06:06.767Z,5.70
2023-05-17T10:08:33.633Z,5.68
2023-05-17T10:11:06.108Z,6.40
2023-05-17T10:13:49.861Z,5.78
2023-05-17T10:16:17.745Z,5.43
2023-05-17T10:18:44.902Z,7.07
2023-05-17T10:21:11.674Z,6.85
2023-05-17T10:24:16.209Z,9.18
2023-05-17T10:26:28.372Z,8.57
2023-05-17T10:29:01.870Z,6.75
2023-05-17T10:31:39.215Z,5.97
2023-05-17T10:34:06.566Z,9.32
2023-05-17T10:39:01.886Z,5.10
2023-05-17T10:41:32.929Z,4.18
2023-05-17T10:44:01.806Z,6.55
2023-05-17T10:46:30.252Z,6.40
2023-05-17T10:48:59.230Z,5.82
2023-05-17T10:51:37.893Z,13.50
2023-05-17T10:54:11.730Z,8.88
2023-05-17T10:56:47.261Z,8.50
2023-05-17T10:59:32.790Z,8.15
2023-05-17T11:02:06.448Z,7.82
2023-05-17T11:04:39.765Z,8.35
2023-05-17T11:07:19.116Z,8.05
2023-05-17T11:09:53.464Z,6.72
2023-05-17T11:12:41.850Z,7.10
2023-05-17T11:15:10.797Z,7.32
2023-05-17T11:17:43.626Z,8.02
2023-05-17T11:20:31.939Z,7.10
2023-05-17T11:23:06.839Z,5.88
2023-05-17T11:25:38.368Z,7.03
2023-05-17T11:28:08.863Z,6.55
2023-05-17T11:30:41.249Z,6.95
2023-05-17T11:33:17.312Z,5.18
2023-05-17T11:35:56.264Z,7.07
2023-05-17T11:38:32.567Z,6.38
2023-05-17T11:41:26.568Z,6.40
2023-05-17T11:43:54.496Z,5.10
2023-05-17T11:46:23.146Z,7.40
2023-05-17T11:48:53.828Z,6.65
2023-05-17T11:51:24.335Z,6.97
2023-05-17T11:53:54.601Z,6.57
2023-05-17T11:56:26.600Z,6.05
2023-05-17T11:59:00.212Z,6.30
2023-05-17T12:01:26.709Z,6.03
2023-05-17T12:03:59.944Z,6.03
2023-05-17T12:06:28.858Z,6.65
2023-05-17T12:08:55.452Z,7.38
2023-05-17T12:11:22.115Z,6.50
2023-05-17T12:13:49.139Z,6.90
2023-05-17T12:16:18.262Z,7.00
2023-05-17T12:18:48.444Z,7.88
2023-05-17T12:21:16.436Z,7.22
2023-05-17T12:23:50.900Z,6.88
2023-05-17T12:26:19.734Z,9.05
2023-05-17T12:28:59.869Z,7.10
2023-05-17T12:31:42.645Z,5.97
2023-05-17T12:34:10.592Z,9.35
2023-05-17T12:36:37.521Z,6.63
2023-05-17T12:39:08.562Z,6.07
2023-05-17T12:41:36.100Z,7.63
2023-05-17T12:44:14.444Z,7.95
2023-05-17T12:46:42.208Z,7.18
2023-05-17T12:49:11.018Z,9.20
2023-05-17T12:51:43.140Z,5.90
2023-05-17T12:54:10.514Z,7.57
2023-05-17T12:59:25.794Z,8.77
2023-05-17T13:01:55.768Z,7.07
2023-05-17T13:04:29.895Z,8.98
2023-05-17T13:06:59.315Z,7.50
2023-05-17T13:09:28.831Z,6.75
2023-05-17T13:11:59.922Z,7.30
2023-05-17T13:14:41.980Z,6.07
2023-05-17T13:17:11.235Z,8.93
2023-05-17T13:19:39.459Z,6.13
2023-05-17T13:22:06.816Z,9.07
2023-05-17T13:27:05.730Z,7.13
2023-05-17T13:29:39.355Z,7.28
2023-05-17T13:32:07.932Z,6.78
2023-05-17T13:34:34.718Z,6.20
2023-05-17T13:37:01.937Z,6.13
2023-05-17T13:39:29.849Z,6.85
2023-05-17T13:41:56.443Z,7.88
2023-05-17T13:44:22.956Z,8.85
2023-05-17T13:46:49.709Z,8.15
2023-05-17T13:49:17.317Z,6.30
2023-05-17T13:51:45.173Z,7.45
2023-05-17T13:54:11.686Z,5.53
2023-05-17T13:56:38.260Z,8.48
2023-05-17T13:59:04.829Z,7.65
2023-05-17T14:01:31.368Z,7.68
2023-05-17T14:03:57.877Z,8.13
2023-05-17T14:06:24.730Z,6.75
2023-05-17T14:08:53.468Z,9.00
2023-05-17T14:11:19.968Z,6.43
2023-05-17T14:13:46.488Z,7.05
2023-05-17T14:16:14.318Z,7.80
2023-05-17T14:18:41.061Z,5.82
2023-05-17T14:21:08.311Z,8.27
2023-05-17T14:23:35.552Z,6.95
2023-05-17T14:26:05.039Z,8.32
2023-05-17T14:28:31.582Z,6.28
2023-05-17T14:30:58.005Z,7.07
2023-05-17T14:33:24.714Z,6.55
2023-05-17T14:35:52.049Z,8.48
2023-05-17T14:38:20.436Z,7.22
2023-05-17T14:40:47.013Z,6.97
2023-05-17T14:43:13.740Z,6.65
2023-05-17T14:45:40.467Z,7.95
2023-05-17T14:48:07.218Z,6.47
2023-05-17T14:50:34.699Z,6.15
2023-05-17T14:53:01.493Z,9.10
2023-05-17T14:55:28.057Z,8.35
2023-05-17T14:57:55.543Z,6.00
2023-05-17T15:00:22.366Z,7.53
2023-05-17T15:02:48.950Z,7.68
2023-05-17T15:05:15.738Z,6.05
2023-05-17T15:07:42.373Z,6.07
2023-05-17T15:10:10.400Z,6.35
2023-05-17T15:12:37.375Z,5.35
2023-05-17T15:15:04.320Z,6.00
2023-05-17T15:17:31.060Z,6.40
2023-05-17T15:19:58.805Z,9.38
2023-05-17T15:22:25.534Z,5.55
2023-05-17T15:24:54.172Z,6.18
2023-05-17T15:27:20.676Z,9.93
2023-05-17T15:29:47.308Z,5.78
2023-05-17T15:32:13.750Z,5.40
2023-05-17T15:34:40.277Z,6.15
2023-05-17T15:37:06.807Z,7.30
2023-05-17T15:39:33.291Z,6.00
2023-05-17T15:42:00.164Z,5.72
2023-05-17T15:44:26.798Z,8.57
2023-05-17T15:46:53.423Z,10.07
2023-05-17T15:49:20.110Z,7.82
2023-05-17T15:51:47.116Z,5.50
2023-05-17T15:54:14.723Z,5.60
2023-05-17T15:56:42.026Z,7.95
2023-05-17T15:59:08.896Z,7.93
2023-05-17T16:01:35.717Z,6.78
2023-05-17T16:04:02.699Z,7.32
2023-05-17T16:06:34.806Z,6.07
2023-05-17T16:09:02.219Z,7.05
2023-05-17T16:11:29.116Z,5.65
2023-05-17T16:13:56.879Z,7.57
2023-05-17T16:16:23.363Z,6.75
2023-05-17T16:18:50.267Z,6.13
2023-05-17T16:21:16.911Z,7.28
2023-05-17T16:23:43.536Z,5.53
2023-05-17T16:26:10.049Z,6.38
2023-05-17T16:28:37.077Z,6.45
2023-05-17T16:31:03.905Z,7.53
2023-05-17T16:33:30.631Z,6.90
2023-05-17T16:35:58.526Z,4.43
2023-05-17T16:38:25.615Z,7.57
2023-05-17T16:40:52.341Z,5.35
2023-05-17T16:43:19.000Z,5.88
2023-05-17T16:45:46.472Z,6.75
2023-05-17T16:53:07.801Z,6.82
2023-05-17T16:55:36.037Z,5.95
2023-05-17T16:58:02.976Z,7.68
2023-05-17T17:00:30.127Z,7.90
2023-05-17T17:02:58.910Z,5.35
2023-05-17T17:05:26.473Z,5.68
2023-05-17T17:07:53.336Z,6.88
2023-05-17T17:10:20.190Z,6.00
2023-05-17T17:12:50.135Z,7.15
2023-05-17T17:15:16.735Z,8.02
2023-05-17T17:17:43.436Z,9.98
2023-05-17T17:20:11.348Z,8.25
2023-05-17T17:22:37.997Z,5.60
2023-05-17T17:25:04.801Z,7.25
2023-05-17T17:27:31.723Z,5.88
2023-05-17T17:29:58.490Z,7.38
2023-05-17T17:32:25.421Z,7.43
2023-05-17T17:34:52.576Z,5.47
2023-05-17T17:37:19.293Z,5.25
2023-05-17T17:39:46.083Z,5.97
2023-05-17T17:42:12.601Z,8.65
2023-05-17T17:44:39.052Z,7.75
2023-05-17T17:47:05.700Z,6.85
2023-05-17T17:49:32.212Z,6.10
2023-05-17T17:51:58.627Z,9.63
2023-05-17T17:54:25.043Z,10.50
2023-05-17T17:56:51.840Z,8.02
2023-05-17T17:59:18.528Z,11.43
2023-05-17T18:01:45.309Z,5.45
2023-05-17T18:04:13.559Z,8.23
2023-05-17T18:06:41.864Z,7.13
2023-05-17T18:09:08.715Z,7.22
2023-05-17T18:11:35.553Z,5.78
2023-05-17T18:14:02.579Z,8.00
2023-05-17T18:16:29.418Z,7.22
2023-05-17T18:18:56.142Z,6.75
2023-05-17T18:21:22.804Z,7.07
2023-05-17T18:23:49.338Z,8.23
2023-05-17T18:26:16.053Z,6.55
2023-05-17T18:28:43.194Z,7.03
2023-05-17T18:31:10.179Z,5.03
2023-05-17T18:33:36.923Z,6.82
2023-05-17T18:36:03.562Z,6.72
2023-05-17T18:38:30.296Z,8.38
2023-05-17T18:40:56.815Z,6.47
2023-05-17T18:43:23.359Z,8.80
2023-05-17T18:45:51.438Z,5.90
2023-05-17T18:48:18.105Z,7.43
2023-05-17T18:50:44.956Z,6.45
2023-05-17T18:53:12.881Z,10.40
2023-05-17T18:55:39.626Z,6.35
2023-05-17T18:58:06.269Z,7.50
2023-05-17T19:00:33.238Z,8.35
2023-05-17T19:02:59.786Z,5.63
2023-05-17T19:05:26.327Z,8.10
2023-05-17T19:07:52.794Z,6.38
2023-05-17T19:10:20.644Z,6.57
2023-05-17T19:12:47.231Z,7.35
2023-05-17T19:15:13.856Z,5.78
2023-05-17T19:17:40.601Z,8.60
2023-05-17T19:20:07.991Z,6.45
2023-05-17T19:22:35.761Z,6.50
2023-05-17T19:27:29.076Z,7.97
2023-05-17T19:29:55.891Z,7.43
2023-05-17T19:32:22.828Z,8.18
2023-05-17T19:34:49.785Z,9.32
2023-05-17T19:37:16.357Z,7.45
2023-05-17T19:39:42.934Z,8.82
2023-05-17T19:42:09.413Z,8.30
2023-05-17T19:44:35.899Z,7.28
2023-05-17T19:47:02.339Z,7.50
2023-05-17T19:49:28.846Z,13.30
2023-05-17T19:52:00.472Z,10.10
2023-05-17T19:54:30.057Z,9.45
2023-05-17T19:56:57.061Z,10.30
2023-05-17T19:59:23.579Z,7.20
2023-05-17T20:01:50.541Z,7.00
2023-05-17T20:04:17.141Z,10.05
2023-05-17T20:06:43.738Z,8.60
2023-05-17T20:09:10.344Z,7.43
2023-05-17T20:11:36.804Z,9.88
2023-05-17T20:14:03.447Z,8.52
2023-05-17T20:16:30.845Z,9.10
2023-05-17T20:19:01.088Z,8.48
2023-05-17T20:21:27.929Z,10.35
2023-05-17T20:24:01.204Z,14.10
2023-05-17T20:26:31.503Z,11.43
2023-05-17T20:28:59.157Z,13.43
2023-05-17T20:31:26.247Z,8.20
2023-05-17T20:33:53.041Z,8.88
2023-05-17T20:36:19.591Z,8.30
2023-05-17T20:38:46.260Z,7.95
2023-05-17T20:41:14.855Z,8.60
2023-05-17T20:43:46.338Z,6.97
2023-05-17T20:46:13.873Z,10.38
2023-05-17T20:48:43.026Z,7.63
2023-05-17T20:51:10.681Z,7.82
2023-05-17T20:53:38.128Z,7.32
2023-05-17T20:56:06.449Z,8.63
2023-05-17T20:58:33.465Z,15.88
2023-05-17T21:01:01.109Z,14.07
2023-05-17T21:05:55.773Z,14.45
2023-05-17T21:08:22.685Z,12.70
2023-05-17T21:10:49.947Z,11.30
2023-05-17T21:13:16.543Z,9.63
2023-05-17T21:15:43.358Z,8.40
2023-05-17T21:18:11.156Z,9.93
2023-05-17T21:20:38.505Z,9.77
2023-05-17T21:23:05.041Z,10.00
2023-05-17T21:25:31.794Z,9.35
2023-05-17T21:27:58.593Z,9.38
2023-05-17T21:30:25.107Z,9.73
2023-05-17T21:32:51.976Z,8.32
2023-05-17T21:35:18.503Z,8.63
2023-05-17T21:37:44.968Z,8.35
2023-05-17T21:40:12.044Z,10.23
2023-05-17T21:42:38.620Z,9.30
2023-05-17T21:45:05.675Z,9.00
2023-05-17T21:47:32.196Z,11.40
2023-05-17T21:49:58.972Z,11.85
2023-05-17T21:52:25.611Z,9.75
2023-05-17T21:54:52.041Z,9.73
2023-05-17T21:57:20.871Z,8.93
2023-05-17T21:59:48.206Z,9.35
2023-05-17T22:02:14.791Z,9.20
2023-05-17T22:04:41.602Z,9.02
2023-05-17T22:07:08.116Z,9.23
2023-05-17T22:09:34.611Z,9.00
2023-05-17T22:12:01.155Z,10.48
2023-05-17T22:14:32.953Z,8.02
2023-05-17T22:16:59.981Z,8.35
2023-05-17T22:19:26.554Z,8.65
2023-05-17T22:21:53.289Z,8.73
2023-05-17T22:24:20.365Z,9.27
2023-05-17T22:26:47.131Z,8.48
2023-05-17T22:29:13.685Z,9.32
2023-05-17T22:31:40.217Z,13.57
2023-05-17T22:34:06.762Z,8.68
2023-05-17T22:36:34.609Z,9.45
2023-05-17T22:39:01.468Z,9.65
2023-05-17T22:41:28.054Z,12.60
2023-05-17T22:43:54.634Z,8.90
2023-05-17T22:46:21.498Z,8.90
2023-05-17T22:48:50.074Z,9.95
2023-05-17T22:51:18.524Z,7.43
2023-05-17T22:53:45.084Z,11.05
2023-05-17T22:56:11.830Z,10.27
2023-05-17T22:58:38.378Z,9.98
2023-05-17T23:01:05.067Z,9.88
2023-05-17T23:03:31.507Z,14.60
2023-05-17T23:06:05.209Z,13.35
2023-05-17T23:08:32.304Z,12.35
2023-05-17T23:10:58.887Z,10.65
2023-05-17T23:13:26.197Z,12.25
2023-05-17T23:15:53.069Z,13.48
2023-05-17T23:18:19.750Z,12.85
2023-05-17T23:20:46.433Z,11.05
2023-05-17T23:23:16.080Z,10.48
2023-05-17T23:25:44.822Z,9.80
2023-05-17T23:28:11.458Z,9.75
2023-05-17T23:30:39.270Z,9.15
2023-05-17T23:33:05.801Z,11.63
2023-05-17T23:35:32.603Z,11.00
2023-05-17T23:37:59.615Z,9.00
2023-05-17T23:40:26.128Z,10.82
2023-05-17T23:42:52.833Z,11.23
2023-05-17T23:45:19.353Z,12.15
2023-05-17T23:47:47.471Z,10.45
2023-05-17T23:50:14.034Z,10.75
2023-05-17T23:52:40.537Z,11.48
2023-05-17T23:55:07.721Z,9.77
2023-05-17T23:57:35.255Z,13.27
